Time;durP1;ratioP1;P1;durP2;ratioP2;P2;SDS_P1;SDS_P2;PMS_P1;PMS_P2;Temp;Humidity;BMP_temperature;BMP_pressure;BME280_temperature;BME280_humidity;BME280_pressure;Samples;Min_cycle;Max_cycle;Signal;HPM_P1;HPM_P2
2023/04/06 00:01:04;;;;;;;;;;;;;;;12.85;41.91;101232.84;5062907;28;20865;-66
2023/04/06 00:03:31;;;;;;;;;;;;;;;12.70;42.54;101232.44;5077444;28;19924;-67
2023/04/06 00:05:58;;;;;;;;;;;;;;;12.94;42.02;101224.59;5075385;28;19931;-67
2023/04/06 00:08:26;;;;;;;;;;;;;;;12.85;42.15;101226.53;5077796;28;19920;-66
2023/04/06 00:10:53;;;;;;;;;;;;;;;12.76;42.51;101223.69;5073920;28;20368;-67
2023/04/06 00:13:20;;;;;;;;;;;;;;;12.64;43.14;101226.22;5075988;28;19940;-68
2023/04/06 00:15:47;;;;;;;;;;;;;;;12.54;43.44;101229.22;5064633;28;19972;-66
2023/04/06 00:18:14;;;;;;;;;;;;;;;12.65;43.49;101227.84;5057607;28;19928;-66
2023/04/06 00:20:41;;;;;;;;;;;;;;;13.03;42.70;101220.81;5059991;28;20257;-67
2023/04/06 00:23:08;;;;;;;;;;;;;;;12.79;43.22;101223.06;5058376;28;20379;-66
2023/04/06 00:25:35;;;;;;;;;;;;;;;12.14;44.70;101225.50;5056217;28;20312;-66
2023/04/06 00:28:03;;;;;;;;;;;;;;;12.01;45.31;101223.56;5058765;28;19928;-66
2023/04/06 00:30:30;;;;;;;;;;;;;;;11.67;46.41;101222.41;5061650;28;19947;-66
2023/04/06 00:32:57;;;;;;;;;;;;;;;11.77;46.29;101217.50;5075133;28;19932;-66
2023/04/06 00:35:25;;;;;;;;;;;;;;;12.00;46.15;101215.63;5058544;28;19928;-67
2023/04/06 00:37:52;;;;;;;;;;;;;;;11.93;46.43;101209.69;5076780;28;19924;-66
2023/04/06 00:40:19;;;;;;;;;;;;;;;11.93;46.62;101210.53;5075065;28;19924;-66
2023/04/06 00:42:46;;;;;;;;;;;;;;;11.88;46.88;101212.56;5073754;28;19920;-64
2023/04/06 00:45:13;;;;;;;;;;;;;;;11.80;47.62;101203.06;5076574;28;19920;-66
2023/04/06 00:47:40;;;;;;;;;;;;;;;11.94;47.36;101205.81;5074047;28;19924;-66
2023/04/06 00:50:08;;;;;;;;;;;;;;;11.85;47.44;101202.16;5077304;28;19924;-66
2023/04/06 00:52:35;;;;;;;;;;;;;;;11.55;48.48;101192.56;5062267;28;19925;-66
2023/04/06 00:55:04;;;;;;;;;;;;;;;11.61;48.59;101196.03;5055554;28;19939;-66
2023/04/06 00:57:32;;;;;;;;;;;;;;;12.00;47.68;101188.00;5060269;28;19925;-66
2023/04/06 00:59:59;;;;;;;;;;;;;;;12.19;47.24;101191.41;5055621;28;19925;-65
2023/04/06 01:02:27;;;;;;;;;;;;;;;11.89;47.73;101187.41;5054974;28;19921;-65
2023/04/06 01:04:54;;;;;;;;;;;;;;;11.90;47.89;101185.47;5073881;28;19924;-65
2023/04/06 01:07:35;;;;;;;;;;;;;;;11.93;47.83;101187.63;5071837;28;19928;-65
2023/04/06 01:10:10;;;;;;;;;;;;;;;12.08;47.39;101185.31;5070076;28;19925;-65
2023/04/06 01:12:38;;;;;;;;;;;;;;;11.88;47.87;101188.56;5075475;28;20587;-65
2023/04/06 01:15:14;;;;;;;;;;;;;;;11.84;48.16;101182.00;5069153;28;19924;-65
2023/04/06 01:17:45;;;;;;;;;;;;;;;11.87;48.10;101181.38;5057693;28;20423;-66
2023/04/06 01:20:15;;;;;;;;;;;;;;;11.84;48.33;101178.44;5074335;28;19925;-66
2023/04/06 01:22:43;;;;;;;;;;;;;;;12.18;47.62;101174.06;5073693;28;19920;-66
2023/04/06 01:25:11;;;;;;;;;;;;;;;12.01;47.90;101173.88;5074817;28;19927;-66
2023/04/06 01:27:50;;;;;;;;;;;;;;;12.47;46.89;101170.81;5073870;28;19924;-66
2023/04/06 01:30:33;;;;;;;;;;;;;;;12.38;46.95;101173.53;5071747;28;19928;-66
2023/04/06 01:33:07;;;;;;;;;;;;;;;12.20;47.29;101171.75;5057903;28;20310;-66
2023/04/06 01:35:44;;;;;;;;;;;;;;;12.20;47.58;101159.94;5058941;28;19928;-66
2023/04/06 01:38:17;;;;;;;;;;;;;;;11.99;47.86;101159.59;5071358;28;19927;-67
2023/04/06 01:40:47;;;;;;;;;;;;;;;11.84;48.59;101154.41;5059034;28;19931;-67
2023/04/06 01:43:18;;;;;;;;;;;;;;;11.84;48.35;101148.91;5058047;28;19920;-66
2023/04/06 01:46:11;;;;;;;;;;;;;;;11.45;49.46;101145.91;5069188;28;20378;-66
2023/04/06 01:48:42;;;;;;;;;;;;;;;11.14;50.52;101144.91;5070525;28;20291;-65
2023/04/06 01:51:20;;;;;;;;;;;;;;;11.42;49.88;101146.50;5045059;28;19931;-66
2023/04/06 01:53:55;;;;;;;;;;;;;;;11.17;49.77;101158.06;5056076;28;20289;-65
2023/04/06 01:56:29;;;;;;;;;;;;;;;11.16;50.11;101161.94;5071124;28;19927;-66
2023/04/06 01:59:03;;;;;;;;;;;;;;;11.11;50.38;101160.09;5057104;28;19927;-67
2023/04/06 02:01:36;;;;;;;;;;;;;;;11.00;50.75;101163.38;5071843;28;19924;-66
2023/04/06 02:04:04;;;;;;;;;;;;;;;11.02;50.30;101159.19;5074232;28;19924;-65
2023/04/06 02:06:31;;;;;;;;;;;;;;;10.94;50.61;101159.91;5073666;28;21117;-66
2023/04/06 02:08:59;;;;;;;;;;;;;;;11.02;50.74;101161.09;5072894;28;19920;-66
2023/04/06 02:11:27;;;;;;;;;;;;;;;11.18;50.49;101146.72;5072004;28;19928;-66
2023/04/06 02:13:55;;;;;;;;;;;;;;;11.67;49.37;101148.75;5056912;28;19920;-66
2023/04/06 02:16:26;;;;;;;;;;;;;;;11.59;49.47;101146.69;5072237;28;19931;-66
2023/04/06 02:18:53;;;;;;;;;;;;;;;11.51;49.76;101152.91;5073184;28;19920;-65
2023/04/06 02:21:20;;;;;;;;;;;;;;;11.64;49.46;101145.75;5064219;28;20328;-66
2023/04/06 02:23:49;;;;;;;;;;;;;;;11.62;49.57;101134.19;5075284;28;19920;-66
2023/04/06 02:26:17;;;;;;;;;;;;;;;11.50;50.18;101129.22;5068267;28;19935;-66
2023/04/06 02:28:45;;;;;;;;;;;;;;;11.24;50.88;101128.16;5067106;28;19947;-67
2023/04/06 02:31:12;;;;;;;;;;;;;;;11.14;51.47;101126.41;5071922;28;19928;-66
2023/04/06 02:33:39;;;;;;;;;;;;;;;11.16;51.61;101110.38;5063521;28;19920;-67
2023/04/06 02:36:06;;;;;;;;;;;;;;;11.24;51.20;101112.41;5060341;28;19925;-66
2023/04/06 02:38:34;;;;;;;;;;;;;;;11.25;51.60;101115.97;5066414;28;19932;-68
2023/04/06 02:41:02;;;;;;;;;;;;;;;11.30;51.33;101115.88;5059567;28;19942;-65
2023/04/06 02:43:29;;;;;;;;;;;;;;;11.38;51.05;101117.09;5073465;28;19928;-67
2023/04/06 02:46:04;;;;;;;;;;;;;;;11.47;50.80;101115.25;5056249;28;19920;-65
2023/04/06 02:48:36;;;;;;;;;;;;;;;11.63;50.13;101116.53;5073269;28;19924;-66
2023/04/06 02:51:04;;;;;;;;;;;;;;;11.78;49.85;101130.00;5055865;28;19920;-66
2023/04/06 02:53:31;;;;;;;;;;;;;;;11.81;49.41;101134.91;5073745;28;19924;-67
2023/04/06 02:55:59;;;;;;;;;;;;;;;11.62;50.11;101125.94;5069954;28;19928;-67
2023/04/06 02:58:35;;;;;;;;;;;;;;;11.50;50.52;101125.66;5073136;28;19935;-66
2023/04/06 03:01:02;;;;;;;;;;;;;;;11.58;50.54;101111.09;5071462;28;19936;-66
2023/04/06 03:03:30;;;;;;;;;;;;;;;11.74;50.17;101126.22;5056662;28;20000;-66
2023/04/06 03:05:59;;;;;;;;;;;;;;;11.90;49.65;101133.84;5070738;28;19924;-67
2023/04/06 03:08:30;;;;;;;;;;;;;;;11.81;49.49;101124.69;5070265;28;19921;-66
2023/04/06 03:10:57;;;;;;;;;;;;;;;12.09;49.26;101122.63;5069435;28;19920;-66
2023/04/06 03:13:32;;;;;;;;;;;;;;;12.19;48.85;101120.44;5055778;28;19924;-67
2023/04/06 03:16:00;;;;;;;;;;;;;;;12.14;48.78;101116.97;5071791;28;19928;-66
2023/04/06 03:18:27;;;;;;;;;;;;;;;11.90;49.02;101108.19;5056783;28;19920;-67
2023/04/06 03:20:56;;;;;;;;;;;;;;;11.98;49.19;101102.72;5070732;28;19928;-65
2023/04/06 03:23:32;;;;;;;;;;;;;;;12.25;48.74;101116.44;5073299;28;19931;-65
2023/04/06 03:26:01;;;;;;;;;;;;;;;12.03;48.76;101127.44;5054634;28;19934;-66
2023/04/06 03:28:29;;;;;;;;;;;;;;;12.01;48.58;101120.63;5074688;28;19927;-64
2023/04/06 03:31:02;;;;;;;;;;;;;;;11.92;48.81;101117.81;5056869;28;20420;-68
2023/04/06 03:33:56;;;;;;;;;;;;;;;11.65;49.23;101106.00;5064625;28;20238;-67
2023/04/06 03:36:33;;;;;;;;;;;;;;;11.73;48.75;101110.81;5074557;28;19935;-65
2023/04/06 03:39:02;;;;;;;;;;;;;;;11.69;48.88;101107.03;5076998;28;20003;-65
2023/04/06 03:41:32;;;;;;;;;;;;;;;11.78;48.44;101102.41;5074531;28;19924;-66
2023/04/06 03:44:05;;;;;;;;;;;;;;;11.80;48.54;101102.91;5076928;28;19920;-66
2023/04/06 03:46:32;;;;;;;;;;;;;;;11.83;48.53;101103.13;5076213;28;19925;-68
2023/04/06 03:49:00;;;;;;;;;;;;;;;11.84;48.52;101095.63;5057306;28;19921;-67
2023/04/06 03:51:27;;;;;;;;;;;;;;;11.68;48.74;101097.13;5065778;28;19932;-66
2023/04/06 03:53:54;;;;;;;;;;;;;;;11.75;48.79;101097.53;5077748;28;19920;-67
2023/04/06 03:56:21;;;;;;;;;;;;;;;11.69;48.60;101094.06;5075855;28;19932;-67
2023/04/06 03:58:50;;;;;;;;;;;;;;;12.07;47.80;101098.09;5076965;28;20284;-67
2023/04/06 04:01:20;;;;;;;;;;;;;;;11.84;48.00;101103.91;5073711;28;19928;-67
2023/04/06 04:03:47;;;;;;;;;;;;;;;11.69;48.54;101109.78;5076709;28;19925;-67
2023/04/06 04:06:17;;;;;;;;;;;;;;;11.69;48.53;101104.28;5072999;28;19924;-67
2023/04/06 04:08:45;;;;;;;;;;;;;;;11.78;48.37;101089.44;5082795;28;19925;-68
2023/04/06 04:11:12;;;;;;;;;;;;;;;11.94;48.08;101101.72;5074439;28;20390;-66
2023/04/06 04:13:39;;;;;;;;;;;;;;;12.08;47.68;101096.16;5077838;28;20280;-66
2023/04/06 04:16:08;;;;;;;;;;;;;;;11.92;47.84;101083.84;5073090;28;19924;-68
2023/04/06 04:18:36;;;;;;;;;;;;;;;11.61;48.65;101080.16;5076210;28;19924;-67
2023/04/06 04:21:05;;;;;;;;;;;;;;;11.38;49.38;101082.84;5069264;28;19931;-66
2023/04/06 04:23:33;;;;;;;;;;;;;;;11.38;49.29;101086.75;5076459;28;19927;-66
2023/04/06 04:26:03;;;;;;;;;;;;;;;11.53;49.00;101092.75;5068230;28;19921;-67
2023/04/06 04:28:30;;;;;;;;;;;;;;;11.76;48.66;101090.88;5056312;28;19928;-66
2023/04/06 04:30:57;;;;;;;;;;;;;;;12.01;48.23;101087.50;5063160;28;20383;-67
2023/04/06 04:33:25;;;;;;;;;;;;;;;12.16;47.74;101098.97;5077434;28;19924;-66
2023/04/06 04:35:55;;;;;;;;;;;;;;;11.89;48.58;101092.78;5071355;28;19935;-66
2023/04/06 04:38:24;;;;;;;;;;;;;;;11.74;49.03;101088.41;5052236;28;19920;-66
2023/04/06 04:40:54;;;;;;;;;;;;;;;11.64;49.58;101094.19;5058468;28;19928;-66
2023/04/06 04:43:22;;;;;;;;;;;;;;;11.76;49.53;101093.63;5074626;28;19924;-66
2023/04/06 04:45:49;;;;;;;;;;;;;;;11.72;49.53;101090.66;5074239;28;19928;-67
2023/04/06 04:48:26;;;;;;;;;;;;;;;11.71;49.55;101102.84;5075967;28;20390;-66
2023/04/06 04:51:00;;;;;;;;;;;;;;;11.72;49.82;101109.16;5057122;28;19939;-66
2023/04/06 04:53:38;;;;;;;;;;;;;;;11.85;49.79;101117.41;5075983;28;19928;-67
2023/04/06 04:56:15;;;;;;;;;;;;;;;12.04;49.05;101106.19;5058889;28;19932;-67
2023/04/06 04:58:44;;;;;;;;;;;;;;;12.06;48.89;101109.47;5075831;28;19920;-66
2023/04/06 05:01:12;;;;;;;;;;;;;;;11.99;48.88;101114.59;5074803;28;19925;-68
2023/04/06 05:03:41;;;;;;;;;;;;;;;12.02;48.76;101120.31;5075600;28;19920;-66
2023/04/06 05:06:12;;;;;;;;;;;;;;;12.02;48.71;101125.00;5074154;28;19924;-67
2023/04/06 05:08:41;;;;;;;;;;;;;;;11.97;48.39;101120.44;5073315;28;19921;-66
2023/04/06 05:11:09;;;;;;;;;;;;;;;11.91;48.58;101120.84;5061098;28;19931;-66
2023/04/06 05:13:41;;;;;;;;;;;;;;;11.90;48.42;101119.22;5059266;28;19920;-68
2023/04/06 05:16:14;;;;;;;;;;;;;;;11.57;49.47;101126.03;5057037;28;19929;-67
2023/04/06 05:18:41;;;;;;;;;;;;;;;11.39;50.17;101119.53;5075474;28;20299;-70
2023/04/06 05:21:10;;;;;;;;;;;;;;;11.37;50.15;101123.75;5053401;28;19931;-67
2023/04/06 05:23:53;;;;;;;;;;;;;;;11.25;50.94;101122.31;5041185;28;19921;-67
2023/04/06 05:26:22;;;;;;;;;;;;;;;11.35;50.88;101122.09;5046643;28;19924;-67
2023/04/06 05:28:54;;;;;;;;;;;;;;;11.09;51.79;101129.28;5075253;28;20370;-68
2023/04/06 05:31:22;;;;;;;;;;;;;;;11.16;51.95;101135.19;5056920;28;19920;-67
2023/04/06 05:33:50;;;;;;;;;;;;;;;11.40;51.55;101134.97;5075331;28;19931;-67
2023/04/06 05:36:27;;;;;;;;;;;;;;;11.65;50.89;101139.13;5072392;28;19924;-66
2023/04/06 05:38:55;;;;;;;;;;;;;;;11.31;51.59;101134.84;5076341;28;19927;-66
2023/04/06 05:41:33;;;;;;;;;;;;;;;11.14;52.20;101137.44;5073442;28;19924;-66
2023/04/06 05:44:00;;;;;;;;;;;;;;;11.18;52.75;101132.94;5058948;28;19920;-66
2023/04/06 05:46:28;;;;;;;;;;;;;;;11.32;52.89;101130.16;5072593;28;19958;-66
2023/04/06 05:48:58;;;;;;;;;;;;;;;11.48;52.55;101134.25;5074853;28;19932;-66
2023/04/06 05:51:28;;;;;;;;;;;;;;;11.56;52.41;101136.25;5066224;28;19928;-67
2023/04/06 05:53:57;;;;;;;;;;;;;;;11.71;52.15;101137.91;5074953;28;19920;-66
2023/04/06 05:56:26;;;;;;;;;;;;;;;11.41;52.76;101136.59;5072709;28;19924;-66
2023/04/06 05:58:53;;;;;;;;;;;;;;;11.35;52.96;101137.81;5074498;28;20328;-68
2023/04/06 06:01:26;;;;;;;;;;;;;;;11.19;53.61;101133.78;5073591;28;19932;-68
2023/04/06 06:03:54;;;;;;;;;;;;;;;11.31;53.73;101137.63;5058030;28;19931;-67
2023/04/06 06:06:25;;;;;;;;;;;;;;;11.31;53.48;101129.34;5072480;28;20137;-67
2023/04/06 06:09:13;;;;;;;;;;;;;;;11.38;53.60;101132.50;5072183;28;19924;-66
2023/04/06 06:11:47;;;;;;;;;;;;;;;11.53;52.59;101125.03;5073185;28;19942;-67
2023/04/06 06:14:16;;;;;;;;;;;;;;;11.53;52.85;101127.78;5075145;28;19924;-68
2023/04/06 06:16:43;;;;;;;;;;;;;;;11.72;52.90;101134.81;5072589;28;19924;-67
2023/04/06 06:19:12;;;;;;;;;;;;;;;11.97;52.76;101128.72;5058218;28;20268;-67
2023/04/06 06:21:40;;;;;;;;;;;;;;;11.93;53.48;101122.19;5035442;28;19925;-67
2023/04/06 06:24:07;;;;;;;;;;;;;;;11.84;53.73;101131.50;5055847;28;19921;-67
2023/04/06 06:26:36;;;;;;;;;;;;;;;11.61;54.57;101130.63;5072597;28;19920;-67
2023/04/06 06:29:05;;;;;;;;;;;;;;;11.57;55.31;101128.81;5074469;28;19927;-66
2023/04/06 06:31:35;;;;;;;;;;;;;;;11.30;56.59;101126.91;5055970;28;19924;-66
2023/04/06 06:34:03;;;;;;;;;;;;;;;11.34;56.94;101130.69;5073999;28;19924;-69
2023/04/06 06:36:32;;;;;;;;;;;;;;;11.81;55.99;101132.13;5070929;28;20272;-66
2023/04/06 06:39:00;;;;;;;;;;;;;;;11.53;56.47;101133.28;5073547;28;20260;-66
2023/04/06 06:41:27;;;;;;;;;;;;;;;11.52;57.08;101137.19;5072376;28;19920;-65
2023/04/06 06:43:55;;;;;;;;;;;;;;;11.44;58.01;101129.66;5075264;28;19920;-65
2023/04/06 06:46:22;;;;;;;;;;;;;;;11.39;58.59;101122.28;5049494;28;19954;-68
2023/04/06 06:48:49;;;;;;;;;;;;;;;11.54;58.49;101126.66;5069221;28;19928;-66
2023/04/06 06:51:17;;;;;;;;;;;;;;;11.56;58.77;101124.44;5067841;28;19921;-65
2023/04/06 06:53:44;;;;;;;;;;;;;;;11.79;58.55;101121.41;5068193;28;20387;-66
2023/04/06 06:56:12;;;;;;;;;;;;;;;11.84;59.05;101112.19;5048244;28;19921;-67
2023/04/06 06:58:40;;;;;;;;;;;;;;;11.72;59.51;101115.50;5061793;28;19925;-64
2023/04/06 07:01:08;;;;;;;;;;;;;;;11.94;59.15;101126.56;5059018;28;20102;-64
2023/04/06 07:03:35;;;;;;;;;;;;;;;11.99;58.89;101122.88;5049657;28;19925;-65
2023/04/06 07:06:02;;;;;;;;;;;;;;;11.85;59.00;101120.19;5065806;28;19928;-67
2023/04/06 07:08:30;;;;;;;;;;;;;;;11.92;58.62;101122.50;5075328;28;19925;-69
2023/04/06 07:10:57;;;;;;;;;;;;;;;11.94;58.65;101132.09;5074709;28;19931;-67
2023/04/06 07:13:27;;;;;;;;;;;;;;;12.16;58.25;101123.00;5076460;28;19936;-66
2023/04/06 07:15:56;;;;;;;;;;;;;;;11.93;58.93;101119.41;5067351;28;19924;-65
2023/04/06 07:18:24;;;;;;;;;;;;;;;12.02;58.95;101122.25;5072066;28;19925;-66
2023/04/06 07:20:51;;;;;;;;;;;;;;;11.99;59.12;101128.41;5059086;28;19933;-67
2023/04/06 07:23:19;;;;;;;;;;;;;;;11.97;59.01;101119.63;5071161;28;19936;-68
2023/04/06 07:25:46;;;;;;;;;;;;;;;12.10;58.94;101130.59;5065175;28;19928;-66
2023/04/06 07:28:13;;;;;;;;;;;;;;;12.24;58.78;101125.81;5073441;28;20375;-66
2023/04/06 07:30:41;;;;;;;;;;;;;;;12.29;58.89;101122.13;5050124;28;19928;-66
2023/04/06 07:33:10;;;;;;;;;;;;;;;12.09;59.53;101123.47;5077446;28;19943;-66
2023/04/06 07:35:37;;;;;;;;;;;;;;;12.05;60.41;101118.84;5066727;28;19940;-66
2023/04/06 07:38:06;;;;;;;;;;;;;;;11.98;60.77;101127.56;5075131;28;20430;-65
2023/04/06 07:40:34;;;;;;;;;;;;;;;12.02;61.76;101125.84;5074133;28;19943;-67
2023/04/06 07:43:02;;;;;;;;;;;;;;;11.89;62.79;101120.38;5073356;28;19931;-67
2023/04/06 07:45:30;;;;;;;;;;;;;;;11.72;64.13;101123.78;5076095;28;20415;-67
2023/04/06 07:47:58;;;;;;;;;;;;;;;11.92;64.13;101125.25;5076681;28;19924;-67
2023/04/06 07:50:27;;;;;;;;;;;;;;;11.72;65.33;101125.72;5063718;28;20031;-68
2023/04/06 07:52:55;;;;;;;;;;;;;;;11.87;65.92;101122.63;5055167;28;19920;-66
2023/04/06 07:55:23;;;;;;;;;;;;;;;12.00;65.94;101125.31;5043525;28;19928;-67
2023/04/06 07:57:50;;;;;;;;;;;;;;;11.96;66.23;101123.53;5066515;28;20383;-66
2023/04/06 08:00:17;;;;;;;;;;;;;;;11.83;66.79;101122.44;5058925;28;20280;-67
2023/04/06 08:02:44;;;;;;;;;;;;;;;12.08;66.89;101118.25;5070568;28;19925;-66
2023/04/06 08:05:12;;;;;;;;;;;;;;;12.07;66.72;101122.94;5070088;28;19936;-69
2023/04/06 08:07:39;;;;;;;;;;;;;;;11.93;67.29;101126.88;5071246;28;19931;-67
2023/04/06 08:10:06;;;;;;;;;;;;;;;11.83;67.42;101121.59;5063826;28;19924;-68
2023/04/06 08:12:34;;;;;;;;;;;;;;;11.98;66.96;101116.53;5077584;28;19928;-68
2023/04/06 08:15:02;;;;;;;;;;;;;;;11.95;67.28;101125.44;5064267;28;19931;-66
2023/04/06 08:17:30;;;;;;;;;;;;;;;12.08;67.20;101118.25;5067655;28;20011;-66
2023/04/06 08:19:58;;;;;;;;;;;;;;;11.75;67.92;101125.13;5046354;28;19927;-67
2023/04/06 08:22:25;;;;;;;;;;;;;;;11.82;68.55;101123.53;5063666;28;20415;-65
2023/04/06 08:24:52;;;;;;;;;;;;;;;12.03;67.61;101121.13;5070255;28;19920;-66
2023/04/06 08:27:20;;;;;;;;;;;;;;;11.89;68.17;101120.38;5064818;28;19939;-64
2023/04/06 08:29:48;;;;;;;;;;;;;;;12.35;67.38;101131.91;5063317;28;20399;-65
2023/04/06 08:32:16;;;;;;;;;;;;;;;12.71;65.61;101124.31;5071331;28;19925;-64
2023/04/06 08:34:43;;;;;;;;;;;;;;;12.92;65.55;101130.91;5066254;28;19928;-65
2023/04/06 08:37:10;;;;;;;;;;;;;;;12.88;65.27;101129.13;5051061;28;20633;-65
2023/04/06 08:39:37;;;;;;;;;;;;;;;13.07;64.64;101136.06;5064911;28;19920;-65
2023/04/06 08:42:10;;;;;;;;;;;;;;;13.18;64.86;101131.84;5055475;28;19925;-65
2023/04/06 08:44:37;;;;;;;;;;;;;;;13.55;63.38;101142.38;5064245;28;19921;-64
2023/04/06 08:47:04;;;;;;;;;;;;;;;13.24;63.98;101138.06;5060424;28;19944;-65
2023/04/06 08:49:31;;;;;;;;;;;;;;;13.02;64.81;101152.78;5070583;28;19924;-64
2023/04/06 08:51:59;;;;;;;;;;;;;;;12.79;65.56;101153.16;5062867;28;20255;-65
2023/04/06 08:54:26;;;;;;;;;;;;;;;12.69;66.15;101154.25;5055975;28;19935;-64
2023/04/06 08:56:53;;;;;;;;;;;;;;;12.62;66.65;101158.59;5045688;28;19927;-64
2023/04/06 08:59:20;;;;;;;;;;;;;;;12.76;65.91;101156.56;5065035;28;19924;-65
2023/04/06 09:01:47;;;;;;;;;;;;;;;12.90;65.46;101157.28;5046194;28;19920;-65
2023/04/06 09:04:14;;;;;;;;;;;;;;;12.50;66.48;101150.06;5066991;28;20396;-65
2023/04/06 09:06:43;;;;;;;;;;;;;;;12.50;67.15;101139.00;5066387;28;19920;-64
2023/04/06 09:09:11;;;;;;;;;;;;;;;12.77;66.62;101138.81;5067258;28;19931;-65
2023/04/06 09:11:48;;;;;;;;;;;;;;;12.90;66.63;101147.00;5068690;28;19921;-66
2023/04/06 09:14:16;;;;;;;;;;;;;;;12.41;67.82;101161.84;5064742;28;19943;-66
2023/04/06 09:16:45;;;;;;;;;;;;;;;12.45;67.95;101165.63;5065117;28;19920;-68
2023/04/06 09:19:12;;;;;;;;;;;;;;;12.43;68.47;101167.06;5067938;28;19978;-67
2023/04/06 09:21:42;;;;;;;;;;;;;;;12.21;68.86;101169.81;5068212;28;19931;-67
2023/04/06 09:24:09;;;;;;;;;;;;;;;12.20;69.62;101166.25;5068605;28;19940;-68
2023/04/06 09:26:45;;;;;;;;;;;;;;;12.23;70.17;101165.63;5065613;28;19928;-68
2023/04/06 09:29:22;;;;;;;;;;;;;;;12.12;71.07;101166.19;5062268;28;19924;-67
2023/04/06 09:31:49;;;;;;;;;;;;;;;12.14;71.09;101163.91;5065724;28;19921;-67
2023/04/06 09:34:23;;;;;;;;;;;;;;;12.10;72.04;101162.94;5056459;28;19928;-67
2023/04/06 09:36:51;;;;;;;;;;;;;;;12.40;71.25;101153.88;5067966;28;19932;-68
2023/04/06 09:39:23;;;;;;;;;;;;;;;12.61;70.98;101160.53;5060557;28;19927;-65
2023/04/06 09:41:50;;;;;;;;;;;;;;;12.46;70.54;101166.44;5049895;28;19932;-64
2023/04/06 09:44:18;;;;;;;;;;;;;;;12.63;70.24;101162.97;5059203;28;20410;-65
2023/04/06 09:46:45;;;;;;;;;;;;;;;12.90;69.47;101140.69;5058158;28;19925;-65
2023/04/06 09:49:30;;;;;;;;;;;;;;;13.02;68.69;101152.78;5059255;28;19951;-65
2023/04/06 09:51:59;;;;;;;;;;;;;;;12.79;69.20;101156.72;5051225;28;20371;-64
2023/04/06 09:54:28;;;;;;;;;;;;;;;12.79;69.54;101158.66;5064641;28;19931;-65
2023/04/06 09:57:16;;;;;;;;;;;;;;;12.71;69.45;101173.28;5062549;28;19932;-65
2023/04/06 09:59:45;;;;;;;;;;;;;;;12.30;70.83;101171.53;5067773;28;19920;-64
2023/04/06 10:02:31;;;;;;;;;;;;;;;12.36;70.91;101178.56;5058029;28;20375;-65
2023/04/06 10:05:01;;;;;;;;;;;;;;;12.54;70.68;101181.44;5053773;28;19927;-65
2023/04/06 10:07:28;;;;;;;;;;;;;;;12.76;70.17;101181.44;5067181;28;20387;-64
2023/04/06 10:09:55;;;;;;;;;;;;;;;12.61;70.83;101176.28;5063358;28;19924;-65
2023/04/06 10:12:22;;;;;;;;;;;;;;;12.77;70.09;101172.81;5047168;28;19924;-66
2023/04/06 10:14:50;;;;;;;;;;;;;;;12.78;70.03;101163.38;5060398;28;19931;-66
2023/04/06 10:17:17;;;;;;;;;;;;;;;12.89;69.83;101161.16;5047578;28;19925;-65
2023/04/06 10:19:47;;;;;;;;;;;;;;;12.88;70.27;101165.88;5048606;28;19920;-65
2023/04/06 10:22:16;;;;;;;;;;;;;;;12.84;70.81;101164.06;5062186;28;19921;-65
2023/04/06 10:24:44;;;;;;;;;;;;;;;13.11;69.68;101169.44;5053428;28;19920;-69
2023/04/06 10:27:15;;;;;;;;;;;;;;;12.69;70.97;101176.34;5055131;28;19921;-66
2023/04/06 10:29:48;;;;;;;;;;;;;;;12.61;71.34;101174.34;5065641;28;19951;-66
2023/04/06 10:32:15;;;;;;;;;;;;;;;12.58;71.82;101163.09;5066808;28;19924;-66
2023/04/06 10:34:43;;;;;;;;;;;;;;;12.89;71.15;101174.97;5060036;28;19927;-65
2023/04/06 10:37:11;;;;;;;;;;;;;;;13.07;69.63;101182.25;5069711;28;19924;-67
2023/04/06 10:39:54;;;;;;;;;;;;;;;12.95;70.73;101182.84;5051178;28;19921;-66
2023/04/06 10:42:24;;;;;;;;;;;;;;;12.68;72.44;101184.94;5069713;28;19929;-66
2023/04/06 10:44:51;;;;;;;;;;;;;;;12.49;73.56;101179.63;5069917;28;19927;-66
2023/04/06 10:47:18;;;;;;;;;;;;;;;12.48;73.60;101193.75;5067178;28;19921;-68
2023/04/06 10:49:45;;;;;;;;;;;;;;;12.66;73.18;101188.03;5044000;28;19924;-66
2023/04/06 10:52:13;;;;;;;;;;;;;;;12.62;73.29;101184.28;5063382;28;19920;-66
2023/04/06 10:54:43;;;;;;;;;;;;;;;12.70;73.34;101190.97;5063275;28;19925;-65
2023/04/06 10:57:10;;;;;;;;;;;;;;;13.20;71.00;101184.09;5067778;28;19932;-64
2023/04/06 10:59:41;;;;;;;;;;;;;;;13.39;70.34;101174.41;5063853;28;19928;-65
2023/04/06 11:02:08;;;;;;;;;;;;;;;13.25;68.90;101175.69;5068554;28;19928;-67
2023/04/06 11:04:35;;;;;;;;;;;;;;;13.38;67.64;101183.03;5068371;28;19920;-66
2023/04/06 11:07:03;;;;;;;;;;;;;;;13.27;68.12;101181.69;5063058;28;19924;-65
2023/04/06 11:09:31;;;;;;;;;;;;;;;13.23;68.32;101181.50;5071630;28;19935;-65
2023/04/06 11:11:58;;;;;;;;;;;;;;;13.14;68.45;101174.31;5068532;28;20303;-66
2023/04/06 11:14:26;;;;;;;;;;;;;;;13.44;67.82;101174.25;5061169;28;19928;-66
2023/04/06 11:16:53;;;;;;;;;;;;;;;13.88;66.24;101172.41;5048332;28;19928;-66
2023/04/06 11:19:21;;;;;;;;;;;;;;;13.65;66.20;101177.22;5052967;28;19936;-65
2023/04/06 11:21:48;;;;;;;;;;;;;;;13.67;65.45;101169.41;5047569;28;19931;-65
2023/04/06 11:24:19;;;;;;;;;;;;;;;13.73;64.97;101170.09;5064118;28;19927;-69
2023/04/06 11:26:51;;;;;;;;;;;;;;;13.72;64.80;101165.69;5066345;28;20393;-68
2023/04/06 11:29:19;;;;;;;;;;;;;;;13.58;65.41;101160.31;5066468;28;19920;-68
2023/04/06 11:31:47;;;;;;;;;;;;;;;13.62;65.88;101172.34;5063659;28;19924;-68
2023/04/06 11:34:17;;;;;;;;;;;;;;;13.74;64.36;101157.88;5064193;28;19931;-68
2023/04/06 11:36:45;;;;;;;;;;;;;;;13.96;64.29;101153.03;5061741;28;19921;-68
2023/04/06 11:39:13;;;;;;;;;;;;;;;13.98;64.29;101141.63;5055370;28;19921;-67
2023/04/06 11:41:40;;;;;;;;;;;;;;;13.81;64.15;101139.63;5062451;28;19924;-65
2023/04/06 11:44:07;;;;;;;;;;;;;;;14.41;63.40;101125.78;5051559;28;19932;-63
2023/04/06 11:46:35;;;;;;;;;;;;;;;14.30;61.86;101124.50;5060826;28;19925;-66
2023/04/06 11:49:02;;;;;;;;;;;;;;;14.31;61.84;101117.84;5056478;28;19924;-64
2023/04/06 11:51:30;;;;;;;;;;;;;;;14.22;61.47;101117.00;5061686;28;19948;-66
2023/04/06 11:53:57;;;;;;;;;;;;;;;14.40;60.93;101113.09;5069142;28;19935;-66
2023/04/06 11:56:27;;;;;;;;;;;;;;;14.21;61.16;101112.59;5063198;28;19920;-66
2023/04/06 11:58:55;;;;;;;;;;;;;;;14.54;60.05;101108.97;5070170;28;19928;-68
2023/04/06 12:01:23;;;;;;;;;;;;;;;14.68;59.03;101123.44;5064841;28;19946;-66
2023/04/06 12:03:50;;;;;;;;;;;;;;;14.60;58.63;101115.97;5068354;28;19924;-67
2023/04/06 12:06:18;;;;;;;;;;;;;;;14.44;58.62;101119.59;5066225;28;19947;-66
2023/04/06 12:08:45;;;;;;;;;;;;;;;14.25;58.77;101124.63;5065109;28;20450;-67
2023/04/06 12:11:12;;;;;;;;;;;;;;;13.75;60.55;101107.72;5069386;28;20042;-65
2023/04/06 12:13:39;;;;;;;;;;;;;;;14.07;60.28;101111.97;5050141;28;19928;-68
2023/04/06 12:16:07;;;;;;;;;;;;;;;14.20;59.20;101109.00;5063540;28;19921;-67
2023/04/06 12:18:34;;;;;;;;;;;;;;;14.21;58.80;101099.53;5069330;28;19931;-65
2023/04/06 12:21:01;;;;;;;;;;;;;;;14.54;59.54;101091.50;5049150;28;20458;-64
2023/04/06 12:23:28;;;;;;;;;;;;;;;15.00;57.78;101099.81;5057699;28;19925;-64
2023/04/06 12:25:56;;;;;;;;;;;;;;;14.88;57.43;101091.41;5054199;28;19974;-63
2023/04/06 12:28:26;;;;;;;;;;;;;;;14.98;57.12;101084.66;5069934;28;20283;-64
2023/04/06 12:30:54;;;;;;;;;;;;;;;14.74;56.14;101090.81;5068176;28;20038;-64
2023/04/06 12:33:21;;;;;;;;;;;;;;;14.63;55.85;101095.06;5059629;28;20455;-65
2023/04/06 12:35:49;;;;;;;;;;;;;;;14.60;56.59;101090.19;5057256;28;19924;-64
2023/04/06 12:38:16;;;;;;;;;;;;;;;14.86;55.99;101096.47;5063874;28;19920;-65
2023/04/06 12:40:43;;;;;;;;;;;;;;;15.19;54.72;101089.13;5066289;28;20453;-64
2023/04/06 12:43:12;;;;;;;;;;;;;;;15.16;54.13;101088.97;5067101;28;19931;-65
2023/04/06 12:45:40;;;;;;;;;;;;;;;15.07;54.04;101093.75;5061080;28;20260;-65